createdAt,value
2022-09-07T00:00:44.204Z,8.95
2022-09-07T00:03:11.932Z,8.18
2022-09-07T00:05:43.720Z,8.05
2022-09-07T00:08:11.819Z,8.65
2022-09-07T00:10:39.535Z,9.73
2022-09-07T00:13:07.449Z,8.50
2022-09-07T00:15:39.487Z,9.40
2022-09-07T00:18:07.700Z,9.68
2022-09-07T00:20:35.159Z,10.80
2022-09-07T00:23:02.586Z,11.38
2022-09-07T00:25:32.046Z,10.23
2022-09-07T00:27:59.765Z,10.45
2022-09-07T00:30:27.224Z,10.60
2022-09-07T00:32:54.865Z,10.73
2022-09-07T00:35:22.266Z,10.23
2022-09-07T00:37:49.747Z,10.02
2022-09-07T00:40:17.449Z,10.55
2022-09-07T00:42:44.950Z,11.25
2022-09-07T00:45:20.314Z,9.77
2022-09-07T00:48:03.351Z,7.82
2022-09-07T00:50:34.407Z,9.10
2022-09-07T00:53:08.740Z,9.75
2022-09-07T00:55:37.443Z,10.40
2022-09-07T00:58:06.306Z,10.13
2022-09-07T01:00:34.625Z,10.07
2022-09-07T01:03:02.448Z,9.90
2022-09-07T01:05:39.491Z,10.73
2022-09-07T01:08:07.337Z,10.82
2022-09-07T01:10:35.884Z,10.45
2022-09-07T01:13:03.452Z,9.55
2022-09-07T01:16:14.383Z,10.82
2022-09-07T01:19:06.553Z,9.13
2022-09-07T01:22:03.990Z,8.80
2022-09-07T01:25:09.139Z,8.13
2022-09-07T01:28:06.861Z,8.27
2022-09-07T01:30:39.230Z,8.15
2022-09-07T01:33:09.343Z,8.38
2022-09-07T01:35:53.463Z,8.50
2022-09-07T01:38:35.214Z,9.00
2022-09-07T01:41:07.928Z,8.40
2022-09-07T01:43:54.724Z,8.27
2022-09-07T01:46:29.562Z,8.55
2022-09-07T01:51:42.613Z,9.90
2022-09-07T01:54:28.689Z,10.18
2022-09-07T01:57:01.360Z,8.68
2022-09-07T01:59:52.523Z,9.65
2022-09-07T02:02:31.060Z,8.48
2022-09-07T02:05:11.434Z,9.52
2022-09-07T02:07:43.373Z,8.52
2022-09-07T02:10:15.664Z,7.82
2022-09-07T02:12:49.389Z,7.55
2022-09-07T02:15:22.422Z,8.00
2022-09-07T02:17:52.921Z,8.05
2022-09-07T02:20:28.905Z,8.20
2022-09-07T02:22:59.733Z,7.72
2022-09-07T02:25:30.275Z,7.70
2022-09-07T02:28:03.047Z,6.95
2022-09-07T02:30:30.704Z,7.03
2022-09-07T02:32:58.096Z,8.15
2022-09-07T02:35:25.576Z,7.22
2022-09-07T02:37:53.676Z,7.93
2022-09-07T02:40:21.143Z,8.80
2022-09-07T02:42:50.068Z,9.43
2022-09-07T02:45:18.042Z,9.50
2022-09-07T02:48:11.638Z,10.55
2022-09-07T02:50:58.764Z,9.93
2022-09-07T02:53:44.499Z,10.90
2022-09-07T02:56:39.614Z,10.07
2022-09-07T02:59:12.208Z,9.88
2022-09-07T03:02:01.160Z,10.10
2022-09-07T03:04:43.417Z,8.88
2022-09-07T03:07:14.864Z,8.77
2022-09-07T03:09:48.754Z,8.55
2022-09-07T03:12:17.108Z,8.55
2022-09-07T03:14:44.888Z,7.25
2022-09-07T03:17:13.100Z,8.23
2022-09-07T03:19:40.933Z,8.23
2022-09-07T03:22:08.309Z,8.13
2022-09-07T03:24:36.786Z,8.02
2022-09-07T03:27:04.514Z,8.20
2022-09-07T03:29:31.907Z,8.30
2022-09-07T03:32:00.226Z,7.72
2022-09-07T03:34:27.868Z,8.98
2022-09-07T03:36:55.262Z,8.75
2022-09-07T03:39:23.945Z,9.00
2022-09-07T03:41:51.667Z,9.20
2022-09-07T03:44:19.072Z,10.32
2022-09-07T03:46:46.557Z,9.55
2022-09-07T03:49:15.569Z,10.90
2022-09-07T03:51:43.048Z,10.27
2022-09-07T03:54:10.416Z,12.18
2022-09-07T03:56:38.085Z,11.15
2022-09-07T03:59:05.546Z,12.32
2022-09-07T04:01:32.949Z,10.48
2022-09-07T04:04:03.060Z,10.57
2022-09-07T04:06:30.847Z,10.02
2022-09-07T04:09:05.142Z,10.38
2022-09-07T04:11:32.988Z,10.98
2022-09-07T04:14:00.391Z,11.75
2022-09-07T04:16:28.309Z,11.85
2022-09-07T04:18:56.056Z,11.45
2022-09-07T04:21:24.377Z,11.63
2022-09-07T04:23:52.529Z,11.90
2022-09-07T04:26:22.664Z,13.55
2022-09-07T04:28:51.088Z,12.57
2022-09-07T04:31:19.066Z,12.95
2022-09-07T04:33:48.265Z,13.48
2022-09-07T04:36:17.880Z,12.88
2022-09-07T04:38:45.481Z,13.65
2022-09-07T04:41:15.745Z,13.73
2022-09-07T04:43:43.500Z,14.87
2022-09-07T04:46:21.865Z,16.37
2022-09-07T04:48:50.992Z,15.30
2022-09-07T04:51:18.937Z,14.90
2022-09-07T04:53:49.071Z,15.40
2022-09-07T04:56:17.330Z,15.40
2022-09-07T04:58:45.096Z,11.95
2022-09-07T05:01:14.297Z,12.60
2022-09-07T05:03:42.374Z,11.15
2022-09-07T05:06:10.153Z,11.90
2022-09-07T05:08:39.151Z,12.10
2022-09-07T05:11:06.821Z,11.18
2022-09-07T05:13:34.234Z,12.70
2022-09-07T05:16:08.428Z,12.37
2022-09-07T05:18:36.402Z,13.52
2022-09-07T05:21:17.040Z,14.20
2022-09-07T05:23:45.747Z,14.55
2022-09-07T05:26:13.131Z,14.48
2022-09-07T05:28:40.694Z,14.65
2022-09-07T05:31:19.068Z,14.63
2022-09-07T05:36:36.596Z,15.25
2022-09-07T05:39:05.545Z,14.48
2022-09-07T05:41:32.969Z,14.55
2022-09-07T05:46:48.391Z,14.13
2022-09-07T05:49:16.085Z,13.88
2022-09-07T05:51:43.493Z,16.17
2022-09-07T05:54:12.057Z,13.35
2022-09-07T05:56:39.883Z,12.85
2022-09-07T05:59:07.296Z,12.52
2022-09-07T06:01:35.991Z,12.20
2022-09-07T06:04:03.962Z,9.75
2022-09-07T06:06:31.423Z,10.10
2022-09-07T06:08:59.924Z,9.43
2022-09-07T06:11:27.704Z,8.98
2022-09-07T06:13:55.870Z,9.30
2022-09-07T06:16:23.374Z,8.45
2022-09-07T06:18:51.102Z,8.20
2022-09-07T06:21:23.489Z,9.50
2022-09-07T06:23:51.537Z,8.98
2022-09-07T06:26:19.840Z,8.38
2022-09-07T06:28:49.862Z,8.30
2022-09-07T06:31:20.355Z,8.25
2022-09-07T06:33:48.695Z,8.73
2022-09-07T06:36:20.961Z,7.85
2022-09-07T06:38:49.768Z,8.05
2022-09-07T06:44:07.931Z,8.23
2022-09-07T06:49:23.746Z,7.75
2022-09-07T06:51:51.509Z,8.32
2022-09-07T06:57:09.327Z,8.48
2022-09-07T06:59:37.866Z,8.25
2022-09-07T07:02:06.723Z,7.95
2022-09-07T07:04:40.222Z,7.90
2022-09-07T07:07:14.603Z,8.38
2022-09-07T07:09:42.533Z,8.35
2022-09-07T07:12:10.720Z,8.63
2022-09-07T07:14:40.949Z,8.98
2022-09-07T07:17:10.390Z,8.00
2022-09-07T07:19:37.813Z,7.43
2022-09-07T07:22:29.179Z,7.57
2022-09-07T07:24:53.497Z,8.43
2022-09-07T07:27:22.049Z,7.97
2022-09-07T07:29:49.769Z,7.68
2022-09-07T07:32:17.476Z,7.72
2022-09-07T07:34:44.872Z,7.70
2022-09-07T07:37:12.251Z,7.18
2022-09-07T07:42:27.476Z,8.40
2022-09-07T07:47:42.805Z,7.35
2022-09-07T07:55:45.679Z,7.50
2022-09-07T07:58:13.120Z,8.05
2022-09-07T08:00:56.656Z,7.78
2022-09-07T08:03:25.484Z,8.05
2022-09-07T08:05:54.338Z,7.82
2022-09-07T08:08:23.314Z,6.85
2022-09-07T08:10:51.578Z,6.45
2022-09-07T08:13:19.313Z,6.53
2022-09-07T08:15:47.180Z,5.35
2022-09-07T08:18:17.010Z,6.40
2022-09-07T08:20:44.780Z,6.57
2022-09-07T08:23:12.250Z,6.12
2022-09-07T08:25:49.361Z,6.30
2022-09-07T08:28:16.732Z,5.30
2022-09-07T08:30:44.482Z,5.35
2022-09-07T08:33:12.030Z,5.12
2022-09-07T08:35:39.436Z,5.60
2022-09-07T08:38:07.165Z,5.00
2022-09-07T08:40:38.387Z,5.37
2022-09-07T08:43:20.148Z,6.25
2022-09-07T08:45:51.455Z,5.70
2022-09-07T08:48:29.621Z,6.35
2022-09-07T08:51:05.490Z,5.90
2022-09-07T08:53:35.653Z,5.25
2022-09-07T08:56:10.249Z,5.57
2022-09-07T08:58:51.285Z,5.22
2022-09-07T09:01:37.059Z,5.35
2022-09-07T09:04:17.842Z,6.00
2022-09-07T09:07:24.188Z,5.78
2022-09-07T09:10:16.764Z,5.55
2022-09-07T09:12:56.637Z,5.50
2022-09-07T09:15:48.160Z,5.93
2022-09-07T09:18:51.191Z,5.28
2022-09-07T09:21:19.495Z,5.80
2022-09-07T09:23:49.207Z,5.80
2022-09-07T09:26:25.667Z,6.03
2022-09-07T09:28:53.775Z,5.82
2022-09-07T09:31:23.675Z,5.55
2022-09-07T09:34:13.314Z,5.62
2022-09-07T09:36:50.082Z,5.68
2022-09-07T09:39:26.688Z,5.57
2022-09-07T09:41:56.810Z,5.97
2022-09-07T09:44:26.582Z,5.80
2022-09-07T09:49:45.167Z,5.80
2022-09-07T09:52:39.090Z,6.50
2022-09-07T10:04:01.151Z,6.05
2022-09-07T10:06:30.871Z,5.93
2022-09-07T10:09:00.608Z,6.93
2022-09-07T10:14:36.870Z,5.68
2022-09-07T10:17:13.120Z,8.70
2022-09-07T10:19:42.500Z,5.70
2022-09-07T10:22:40.392Z,6.15
2022-09-07T10:25:33.023Z,6.05
2022-09-07T10:28:03.687Z,6.28
2022-09-07T10:30:39.838Z,6.20
2022-09-07T10:33:24.738Z,5.65
2022-09-07T10:36:00.604Z,6.12
2022-09-07T10:38:29.336Z,6.43
2022-09-07T10:41:04.302Z,6.15
2022-09-07T10:43:39.977Z,6.03
2022-09-07T10:49:25.417Z,5.55
2022-09-07T10:52:37.803Z,6.12
2022-09-07T10:55:20.699Z,6.00
2022-09-07T10:57:53.993Z,7.35
2022-09-07T11:00:22.706Z,7.78
2022-09-07T11:06:05.814Z,7.28
2022-09-07T11:09:16.213Z,7.55
2022-09-07T11:12:03.832Z,7.60
2022-09-07T11:14:43.040Z,8.88
2022-09-07T11:17:16.630Z,10.90
2022-09-07T11:22:28.152Z,12.05
2022-09-07T11:27:56.230Z,12.02
2022-09-07T11:30:28.251Z,10.73
2022-09-07T11:33:02.235Z,13.07
2022-09-07T11:35:45.439Z,13.27
2022-09-07T11:38:34.450Z,13.20
2022-09-07T11:41:17.453Z,13.57
2022-09-07T11:44:03.421Z,13.18
2022-09-07T11:47:14.446Z,13.77
2022-09-07T11:49:41.841Z,12.43
2022-09-07T11:52:28.016Z,14.13
2022-09-07T11:54:57.761Z,13.45
2022-09-07T11:57:38.878Z,13.10
2022-09-07T12:00:13.138Z,13.32
2022-09-07T12:02:59.902Z,14.57
2022-09-07T12:05:41.637Z,14.70
2022-09-07T12:08:35.262Z,15.63
2022-09-07T12:11:27.507Z,13.95
2022-09-07T12:14:16.145Z,15.88
2022-09-07T12:16:52.624Z,14.02
2022-09-07T12:19:23.563Z,14.27
2022-09-07T12:21:53.906Z,14.43
2022-09-07T12:24:39.753Z,13.93
2022-09-07T12:27:22.040Z,13.75
2022-09-07T12:29:59.523Z,14.00
2022-09-07T12:32:54.897Z,13.50
2022-09-07T12:35:26.641Z,14.00
2022-09-07T12:38:18.998Z,13.57
2022-09-07T12:40:49.728Z,13.77
2022-09-07T12:43:17.116Z,13.98
2022-09-07T12:45:52.303Z,15.07
2022-09-07T12:48:19.844Z,14.50
2022-09-07T12:51:08.010Z,14.63
2022-09-07T12:54:07.090Z,13.70
2022-09-07T12:57:29.057Z,13.60
2022-09-07T13:00:07.249Z,13.15
2022-09-07T13:06:08.511Z,12.50
2022-09-07T13:08:49.161Z,11.77
2022-09-07T13:11:19.961Z,13.10
2022-09-07T13:14:05.008Z,12.15
2022-09-07T13:19:51.075Z,12.57
2022-09-07T13:22:30.831Z,12.77
2022-09-07T13:24:59.916Z,12.10
2022-09-07T13:27:53.496Z,12.05
2022-09-07T13:30:37.644Z,11.80
2022-09-07T13:35:52.982Z,11.10
2022-09-07T13:38:21.552Z,10.93
2022-09-07T13:40:52.160Z,10.45
2022-09-07T13:43:23.931Z,9.75
2022-09-07T13:45:54.652Z,10.35
2022-09-07T13:48:25.166Z,9.27
2022-09-07T13:51:13.216Z,8.52
2022-09-07T13:53:56.261Z,8.15
2022-09-07T13:56:37.794Z,8.73
2022-09-07T13:59:25.991Z,8.32
2022-09-07T14:01:54.073Z,9.38
2022-09-07T14:04:46.754Z,9.07
2022-09-07T14:07:16.755Z,8.68
2022-09-07T14:09:44.422Z,8.85
2022-09-07T14:12:16.907Z,9.23
2022-09-07T14:14:44.684Z,10.25
2022-09-07T14:17:17.953Z,10.18
2022-09-07T14:19:50.272Z,10.13
2022-09-07T14:22:23.422Z,10.07
2022-09-07T14:24:53.505Z,10.88
2022-09-07T14:27:38.491Z,10.82
2022-09-07T14:30:28.327Z,10.60
2022-09-07T14:32:59.901Z,10.50
2022-09-07T14:35:33.558Z,11.25
2022-09-07T14:41:14.521Z,11.27
2022-09-07T14:43:56.209Z,11.20
2022-09-07T14:46:28.539Z,11.98
2022-09-07T14:48:57.308Z,12.13
2022-09-07T14:51:35.287Z,12.85
2022-09-07T14:54:06.410Z,11.70
2022-09-07T14:56:41.268Z,12.48
2022-09-07T14:59:41.260Z,12.30
2022-09-07T15:02:17.866Z,11.30
2022-09-07T15:04:50.236Z,11.50
2022-09-07T15:07:41.662Z,11.55
2022-09-07T15:10:21.095Z,11.15
2022-09-07T15:12:54.274Z,11.35
2022-09-07T15:15:26.248Z,11.27
2022-09-07T15:17:59.000Z,11.35
2022-09-07T15:20:48.313Z,11.85
2022-09-07T15:23:17.541Z,12.37
2022-09-07T15:25:50.885Z,13.07
2022-09-07T15:34:03.478Z,14.45
2022-09-07T15:36:32.098Z,13.85
2022-09-07T15:39:00.300Z,14.85
2022-09-07T15:41:29.259Z,15.45
2022-09-07T15:43:57.087Z,15.40
2022-09-07T15:46:25.018Z,15.70
2022-09-07T15:48:55.038Z,16.17
2022-09-07T15:54:14.010Z,15.73
2022-09-07T15:56:43.634Z,14.43
2022-09-07T15:59:12.034Z,15.48
2022-09-07T16:01:56.016Z,15.32
2022-09-07T16:04:24.371Z,15.60
2022-09-07T16:06:51.839Z,14.82
2022-09-07T16:09:21.758Z,14.65
2022-09-07T16:11:51.301Z,14.52
2022-09-07T16:14:18.829Z,14.63
2022-09-07T16:19:35.259Z,14.60
2022-09-07T16:22:03.885Z,15.25
2022-09-07T16:24:31.270Z,14.25
2022-09-07T16:26:58.970Z,14.50
2022-09-07T16:29:26.403Z,14.02
2022-09-07T16:34:41.441Z,14.38
2022-09-07T16:37:08.802Z,14.87
2022-09-07T16:39:36.365Z,14.98
2022-09-07T16:42:04.179Z,14.15
2022-09-07T16:44:31.914Z,13.98
2022-09-07T16:46:59.855Z,15.05
2022-09-07T16:49:28.826Z,15.30
2022-09-07T16:51:56.202Z,14.38
2022-09-07T16:54:23.562Z,14.00
2022-09-07T16:56:52.654Z,14.90
2022-09-07T16:59:25.527Z,14.60
2022-09-07T17:01:53.422Z,15.07
2022-09-07T17:04:20.923Z,15.23
2022-09-07T17:06:48.359Z,14.35
2022-09-07T17:09:16.016Z,14.80
2022-09-07T17:11:43.366Z,15.35
2022-09-07T17:14:10.720Z,15.93
2022-09-07T17:16:40.369Z,16.50
2022-09-07T17:21:59.781Z,15.27
2022-09-07T17:24:27.267Z,14.98
2022-09-07T17:26:54.749Z,17.05
2022-09-07T17:29:22.670Z,17.67
2022-09-07T17:34:37.846Z,16.15
2022-09-07T17:37:05.299Z,18.00
2022-09-07T17:39:32.690Z,18.20
2022-09-07T17:42:01.112Z,17.70
2022-09-07T17:44:33.250Z,17.87
2022-09-07T17:47:03.587Z,20.25
2022-09-07T17:49:31.005Z,20.25
2022-09-07T17:51:59.996Z,19.85
2022-09-07T17:54:27.913Z,17.30
2022-09-07T17:56:55.529Z,17.55
2022-09-07T18:02:13.740Z,19.45
2022-09-07T18:04:42.012Z,19.98
2022-09-07T18:07:09.805Z,22.50
2022-09-07T18:09:38.637Z,22.60
2022-09-07T18:12:06.825Z,21.92
2022-09-07T18:14:34.665Z,23.33
2022-09-07T18:17:02.425Z,24.95
2022-09-07T18:19:30.361Z,24.20
2022-09-07T18:21:58.078Z,24.65
2022-09-07T18:24:25.881Z,24.35
2022-09-07T18:26:54.415Z,22.67
2022-09-07T18:29:30.077Z,24.73
2022-09-07T18:32:02.795Z,25.42
2022-09-07T18:34:31.956Z,25.77
2022-09-07T18:37:00.943Z,23.08
2022-09-07T18:39:28.854Z,24.48
2022-09-07T18:41:57.124Z,25.98
2022-09-07T18:47:23.188Z,25.05
2022-09-07T18:49:55.476Z,25.12
2022-09-07T18:55:12.134Z,26.02
2022-09-07T18:57:39.874Z,27.65
2022-09-07T19:00:09.171Z,27.62
2022-09-07T19:02:37.669Z,28.30
2022-09-07T19:07:53.970Z,28.92
2022-09-07T19:10:21.806Z,28.30
2022-09-07T19:12:49.559Z,28.25
2022-09-07T19:15:17.695Z,28.08
2022-09-07T19:17:45.516Z,26.67
2022-09-07T19:20:13.453Z,26.90
2022-09-07T19:22:43.172Z,25.27
2022-09-07T19:25:11.016Z,25.48
2022-09-07T19:27:38.957Z,25.42
2022-09-07T19:30:07.517Z,25.92
2022-09-07T19:32:35.326Z,25.15
2022-09-07T19:35:03.165Z,25.42
2022-09-07T19:37:33.106Z,25.20
2022-09-07T19:40:01.903Z,25.20
2022-09-07T19:42:30.044Z,25.12
2022-09-07T19:44:58.938Z,24.30
2022-09-07T19:47:26.698Z,25.08
2022-09-07T19:49:54.531Z,25.45
2022-09-07T19:52:22.655Z,25.27
2022-09-07T19:54:50.486Z,26.27
2022-09-07T19:57:18.310Z,26.98
2022-09-07T19:59:47.596Z,27.85
2022-09-07T20:02:15.426Z,27.33
2022-09-07T20:04:43.505Z,27.15
2022-09-07T20:07:12.645Z,25.60
2022-09-07T20:09:40.314Z,25.08
2022-09-07T20:12:09.044Z,24.87
2022-09-07T20:14:37.176Z,25.62
2022-09-07T20:17:04.989Z,24.87
2022-09-07T20:19:32.914Z,25.00
2022-09-07T20:22:00.673Z,25.77
2022-09-07T20:24:28.211Z,25.15
2022-09-07T20:26:56.050Z,25.92
2022-09-07T20:29:28.592Z,21.73
2022-09-07T20:32:01.162Z,23.87
2022-09-07T20:34:29.106Z,24.15
2022-09-07T20:36:57.029Z,23.70
2022-09-07T20:39:24.850Z,19.85
2022-09-07T20:41:52.196Z,23.58
2022-09-07T20:44:19.858Z,20.52
2022-09-07T20:46:47.347Z,21.67
2022-09-07T20:49:14.812Z,23.77
2022-09-07T20:51:42.478Z,23.08
2022-09-07T20:54:10.192Z,24.40
2022-09-07T20:56:37.537Z,24.77
2022-09-07T20:59:05.349Z,26.95
2022-09-07T21:01:33.211Z,27.08
2022-09-07T21:04:01.242Z,27.30
2022-09-07T21:06:29.865Z,26.70
2022-09-07T21:08:57.850Z,26.98
2022-09-07T21:11:27.541Z,28.02
2022-09-07T21:13:57.219Z,26.67
2022-09-07T21:16:24.771Z,27.05
2022-09-07T21:18:56.841Z,27.08
2022-09-07T21:21:26.607Z,28.95
2022-09-07T21:24:01.048Z,27.02
2022-09-07T21:26:28.818Z,28.45
2022-09-07T21:28:57.245Z,27.37
2022-09-07T21:31:25.429Z,27.17
2022-09-07T21:33:55.182Z,26.40
2022-09-07T21:36:23.000Z,28.02
2022-09-07T21:38:50.801Z,26.70
2022-09-07T21:41:19.725Z,26.60
2022-09-07T21:43:47.609Z,26.27
2022-09-07T21:46:17.436Z,27.35
2022-09-07T21:48:46.119Z,26.92
2022-09-07T21:51:14.320Z,26.70
2022-09-07T21:53:42.561Z,26.37
2022-09-07T21:56:12.605Z,25.92
2022-09-07T21:58:40.422Z,26.75
2022-09-07T22:01:13.794Z,26.55
2022-09-07T22:03:41.777Z,27.33
2022-09-07T22:06:10.589Z,27.00
2022-09-07T22:08:39.849Z,28.12
2022-09-07T22:11:13.067Z,28.00
2022-09-07T22:13:40.930Z,27.58
2022-09-07T22:16:09.479Z,28.48
2022-09-07T22:18:37.980Z,28.67
2022-09-07T22:21:06.369Z,27.83
2022-09-07T22:23:35.756Z,29.00
2022-09-07T22:26:03.159Z,28.92
2022-09-07T22:28:30.579Z,27.62
2022-09-07T22:31:12.396Z,27.85
2022-09-07T22:33:41.199Z,27.70
2022-09-07T22:36:20.058Z,28.33
2022-09-07T22:38:49.657Z,27.00
2022-09-07T22:41:20.337Z,27.33
2022-09-07T22:43:48.143Z,27.95
2022-09-07T22:46:15.573Z,27.25
2022-09-07T22:48:43.904Z,26.87
2022-09-07T22:51:11.880Z,27.13
2022-09-07T22:53:41.405Z,28.45
2022-09-07T22:56:18.604Z,26.83
2022-09-07T22:58:56.749Z,26.25
2022-09-07T23:01:25.289Z,26.90
2022-09-07T23:03:53.434Z,26.77
2022-09-07T23:06:23.910Z,27.42
2022-09-07T23:08:52.142Z,27.35
2022-09-07T23:11:20.145Z,26.70
2022-09-07T23:13:55.130Z,27.50
2022-09-07T23:16:23.246Z,26.35
2022-09-07T23:18:51.024Z,26.70
2022-09-07T23:21:18.747Z,24.67
2022-09-07T23:23:51.389Z,26.42
2022-09-07T23:26:20.279Z,25.65
2022-09-07T23:28:55.704Z,26.05
2022-09-07T23:31:23.693Z,25.52
2022-09-07T23:33:52.079Z,25.25
2022-09-07T23:36:19.612Z,25.80
2022-09-07T23:38:48.688Z,25.20
2022-09-07T23:41:19.838Z,24.25
2022-09-07T23:43:48.361Z,24.60
2022-09-07T23:46:16.260Z,26.30
2022-09-07T23:48:44.592Z,24.70
2022-09-07T23:51:12.677Z,25.60
2022-09-07T23:53:40.973Z,24.58
2022-09-07T23:56:08.340Z,23.95
2022-09-07T23:58:35.791Z,24.95
